Time;durP1;ratioP1;P1;durP2;ratioP2;P2;SDS_P1;SDS_P2;PMS_P1;PMS_P2;Temp;Humidity;BMP_temperature;BMP_pressure;BME280_temperature;BME280_humidity;BME280_pressure;Samples;Min_cycle;Max_cycle;Signal;HPM_P1;HPM_P2
2022/03/02 00:01:31;;;;;;;20.67;9.95;;;-1.40;84.70;-2.20;99785.00;;;;4576951;30;93142;-61
2022/03/02 00:03:57;;;;;;;17.30;7.55;;;-1.40;85.20;-2.20;99782.00;;;;4580237;30;92105;-60
2022/03/02 00:06:24;;;;;;;18.23;8.70;;;-1.40;84.20;-2.20;99787.00;;;;4576151;30;94097;-60
2022/03/02 00:08:51;;;;;;;15.90;7.88;;;-1.50;85.00;-2.20;99780.00;;;;4575007;30;93819;-61
2022/03/02 00:11:20;;;;;;;19.20;8.38;;;-1.50;84.40;-2.20;99764.00;;;;4575262;30;92111;-61
2022/03/02 00:13:47;;;;;;;18.17;8.93;;;-1.50;84.00;-2.20;99762.00;;;;4577470;30;91447;-61
2022/03/02 00:16:14;;;;;;;13.60;7.22;;;-1.50;84.00;-2.20;99763.00;;;;4577490;30;93515;-61
2022/03/02 00:18:45;;;;;;;16.17;6.80;;;-1.40;83.40;-2.20;99781.00;;;;4580022;30;92952;-60
2022/03/02 00:21:15;;;;;;;11.80;5.20;;;-1.50;83.20;-2.20;99773.00;;;;4578540;30;93150;-61
2022/03/02 00:23:43;;;;;;;;;;;-1.50;83.10;-2.20;99776.00;;;;4583265;30;93356;-61
2022/03/02 00:26:17;;;;;;;10.95;5.13;;;-1.40;83.20;-2.20;99776.00;;;;4591607;30;93865;-61
2022/03/02 00:28:45;;;;;;;12.88;5.72;;;-1.40;83.30;-2.10;99773.00;;;;4583262;30;93025;-61
2022/03/02 00:31:12;;;;;;;11.43;5.57;;;-1.40;84.10;-2.20;99763.00;;;;4581607;30;92380;-61
2022/03/02 00:33:39;;;;;;;12.50;5.70;;;-1.40;83.00;-2.20;99770.00;;;;4581995;30;92734;-61
2022/03/02 00:36:07;;;;;;;10.85;5.65;;;-1.40;83.10;-2.20;99758.00;;;;4580879;30;93782;-60
2022/03/02 00:38:34;;;;;;;13.23;5.85;;;-1.40;83.00;-2.20;99772.00;;;;4577865;30;95156;-60
2022/03/02 00:41:04;;;;;;;13.38;5.95;;;-1.50;82.90;-2.20;99765.00;;;;4573476;30;92674;-61
2022/03/02 00:43:34;;;;;;;14.05;5.72;;;-1.50;83.10;-2.20;99766.00;;;;4577271;30;92934;-61
2022/03/02 00:46:11;;;;;;;13.05;5.65;;;-1.50;83.20;-2.20;99753.00;;;;4576858;30;95653;-61
2022/03/02 00:48:39;;;;;;;11.10;4.75;;;-1.50;82.60;-2.10;99744.00;;;;4565047;30;95513;-60
2022/03/02 00:51:09;;;;;;;10.43;4.40;;;-1.30;81.70;-2.00;99740.00;;;;4580363;30;92490;-61
2022/03/02 00:53:46;;;;;;;11.82;3.90;;;-1.20;81.00;-1.90;99739.00;;;;4579471;30;93337;-60
2022/03/02 00:56:27;;;;;;;9.90;4.20;;;-1.20;80.30;-1.90;99736.00;;;;4576012;30;94311;-60
2022/03/02 00:59:27;;;;;;;8.38;3.45;;;-1.10;80.30;-1.80;99738.00;;;;4581098;30;92353;-61
2022/03/02 01:02:19;;;;;;;10.48;4.35;;;-1.10;80.00;-1.80;99744.00;;;;4577100;30;92038;-61
2022/03/02 01:05:03;;;;;;;8.55;4.15;;;-1.00;79.80;-1.80;99749.00;;;;4583423;30;91520;-61
2022/03/02 01:08:00;;;;;;;9.05;3.08;;;-1.10;80.10;-1.90;99747.00;;;;4575154;30;93861;-61
2022/03/02 01:10:27;;;;;;;8.63;4.05;;;-1.10;78.80;-1.90;99736.00;;;;4580939;30;93488;-61
2022/03/02 01:13:17;;;;;;;11.77;4.15;;;-1.10;78.70;-1.80;99742.00;;;;4579750;30;93758;-61
2022/03/02 01:15:54;;;;;;;9.35;3.70;;;-1.10;78.10;-1.70;99732.00;;;;4575703;30;93214;-61
2022/03/02 01:18:30;;;;;;;8.38;4.00;;;-1.00;76.90;-1.70;99736.00;;;;4576307;30;92669;-60
2022/03/02 01:21:00;;;;;;;8.40;3.55;;;-1.00;77.10;-1.70;99741.00;;;;4573965;30;93835;-61
2022/03/02 01:23:30;;;;;;;8.90;3.40;;;-0.90;76.70;-1.70;99731.00;;;;4590196;30;92949;-61
2022/03/02 01:26:06;;;;;;;7.65;3.40;;;-1.00;76.50;-1.70;99742.00;;;;4574173;30;92321;-61
2022/03/02 01:29:02;;;;;;;9.65;3.38;;;-1.00;76.50;-1.80;99730.00;;;;4574832;30;93033;-61
2022/03/02 01:32:01;;;;;;;7.30;3.60;;;-1.10;76.40;-1.90;99718.00;;;;4571208;30;94121;-60
2022/03/02 01:34:31;;;;;;;10.80;4.57;;;-1.10;77.50;-1.90;99718.00;;;;4576084;30;93391;-60
2022/03/02 01:37:14;;;;;;;15.30;4.93;;;-1.20;78.20;-2.00;99724.00;;;;4575801;30;93663;-61
2022/03/02 01:40:02;;;;;;;14.75;5.80;;;-1.20;79.50;-2.10;99726.00;;;;4575319;30;93921;-60
2022/03/02 01:42:49;;;;;;;11.15;5.10;;;-1.40;81.00;-2.20;99724.00;;;;4575328;30;93424;-60
2022/03/02 01:45:17;;;;;;;12.75;4.40;;;-1.40;81.50;-2.20;99720.00;;;;4574862;30;92138;-59
2022/03/02 01:47:56;;;;;;;11.90;4.82;;;-1.40;80.70;-2.20;99717.00;;;;4575528;30;92171;-60
2022/03/02 01:50:27;;;;;;;16.95;4.93;;;-1.40;80.90;-2.20;99711.00;;;;4575443;30;93852;-59
2022/03/02 01:53:06;;;;;;;7.57;4.47;;;-1.40;80.90;-2.20;99708.00;;;;4576551;30;94938;-60
2022/03/02 01:55:42;;;;;;;10.20;4.75;;;-1.40;80.80;-2.20;99698.00;;;;4576805;30;93330;-59
2022/03/02 01:58:26;;;;;;;8.52;4.43;;;-1.40;80.60;-2.20;99693.00;;;;4578064;30;91453;-60
2022/03/02 02:01:03;;;;;;;13.25;5.10;;;-1.40;81.00;-2.20;99702.00;;;;4575260;30;93207;-60
2022/03/02 02:03:35;;;;;;;10.85;4.90;;;-1.50;80.90;-2.30;99691.00;;;;4568076;30;92302;-61
2022/03/02 02:06:02;;;;;;;8.95;4.53;;;-1.60;80.20;-2.40;99694.00;;;;4576861;30;94264;-61
2022/03/02 02:08:29;;;;;;;9.50;4.07;;;-1.60;80.00;-2.40;99691.00;;;;4574747;30;92580;-61
2022/03/02 02:10:56;;;;;;;9.82;3.83;;;-1.60;79.90;-2.40;99688.00;;;;4577148;30;92764;-61
2022/03/02 02:13:25;;;;;;;9.93;4.40;;;-1.60;80.10;-2.40;99685.00;;;;4580992;30;92966;-60
2022/03/02 02:15:53;;;;;;;13.55;4.60;;;-1.70;80.20;-2.50;99690.00;;;;4573574;30;92432;-61
2022/03/02 02:18:20;;;;;;;14.07;4.95;;;-1.70;80.90;-2.50;99691.00;;;;4577465;30;94789;-61
2022/03/02 02:20:46;;;;;;;11.65;5.30;;;-1.80;81.20;-2.60;99675.00;;;;4575513;30;94132;-61
2022/03/02 02:23:13;;;;;;;13.63;5.45;;;-1.80;81.20;-2.60;99675.00;;;;4581574;30;93565;-60
2022/03/02 02:25:40;;;;;;;14.77;4.75;;;-1.90;81.40;-2.70;99678.00;;;;4577287;30;92563;-61
2022/03/02 02:28:12;;;;;;;7.57;4.32;;;-1.90;81.90;-2.70;99685.00;;;;4578486;30;93417;-61
2022/03/02 02:30:40;;;;;;;8.30;4.50;;;-2.00;81.90;-2.70;99681.00;;;;4574522;30;94938;-61
2022/03/02 02:33:06;;;;;;;10.27;4.60;;;-2.00;81.80;-2.70;99677.00;;;;4579395;30;94257;-61
2022/03/02 02:35:33;;;;;;;12.63;4.32;;;-2.00;82.00;-2.70;99681.00;;;;4578576;30;93224;-61
2022/03/02 02:38:00;;;;;;;8.70;4.22;;;-1.90;81.80;-2.70;99662.00;;;;4580215;30;93001;-61
2022/03/02 02:40:28;;;;;;;11.23;4.88;;;-1.90;82.10;-2.70;99669.00;;;;4582341;30;93775;-61
2022/03/02 02:42:54;;;;;;;11.50;5.70;;;-2.00;82.50;-2.80;99665.00;;;;4584823;30;92261;-61
2022/03/02 02:45:23;;;;;;;14.07;6.38;;;-2.10;83.60;-2.90;99648.00;;;;4579967;30;92273;-61
2022/03/02 02:47:55;;;;;;;10.98;6.57;;;-2.10;84.30;-2.90;99648.00;;;;4581146;30;91794;-62
2022/03/02 02:50:27;;;;;;;;;;;-2.20;84.40;-3.00;99649.00;;;;4583054;30;94495;-60
2022/03/02 02:52:55;;;;;;;17.10;7.40;;;-2.20;84.60;-3.10;99647.00;;;;4581225;30;92092;-58
2022/03/02 02:55:27;;;;;;;15.32;7.43;;;-2.30;85.10;-3.20;99647.00;;;;4578375;30;93614;-58
2022/03/02 02:57:55;;;;;;;21.98;7.20;;;-2.40;85.40;-3.20;99647.00;;;;4581223;30;92205;-60
2022/03/02 03:00:25;;;;;;;13.60;6.53;;;-2.50;85.80;-3.20;99654.00;;;;4578638;30;93799;-60
2022/03/02 03:02:53;;;;;;;13.20;6.63;;;-2.50;85.80;-3.30;99634.00;;;;4569858;30;93540;-60
2022/03/02 03:05:23;;;;;;;16.38;6.75;;;-2.60;85.70;-3.40;99637.00;;;;4582536;30;92203;-61
2022/03/02 03:07:51;;;;;;;13.93;6.80;;;-2.60;86.80;-3.30;99642.00;;;;4579126;30;93005;-61
2022/03/02 03:10:18;;;;;;;11.32;5.72;;;-2.50;86.40;-3.30;99633.00;;;;4585919;30;93725;-61
2022/03/02 03:12:46;;;;;;;16.42;5.90;;;-2.60;86.10;-3.30;99630.00;;;;4580635;30;92306;-61
2022/03/02 03:15:15;;;;;;;12.73;5.57;;;-2.50;86.00;-3.30;99635.00;;;;4582169;30;91936;-60
2022/03/02 03:17:43;;;;;;;10.52;6.03;;;-2.50;86.80;-3.30;99638.00;;;;4574541;30;92576;-61
2022/03/02 03:20:12;;;;;;;16.75;7.10;;;-2.50;87.00;-3.30;99626.00;;;;4577453;30;93723;-58
2022/03/02 03:22:38;;;;;;;12.13;6.00;;;-2.50;87.20;-3.40;99615.00;;;;4577288;30;94349;-61
2022/03/02 03:25:07;;;;;;;12.98;7.05;;;-2.60;87.20;-3.40;99616.00;;;;4576369;30;92303;-58
2022/03/02 03:27:34;;;;;;;17.85;7.30;;;-2.60;87.50;-3.60;99622.00;;;;4578698;30;93547;-59
2022/03/02 03:30:00;;;;;;;13.85;7.45;;;-2.80;87.40;-3.70;99612.00;;;;4576800;30;95837;-58
2022/03/02 03:32:27;;;;;;;10.70;5.47;;;-2.90;88.00;-3.80;99614.00;;;;4576562;30;92754;-58
2022/03/02 03:34:53;;;;;;;14.95;8.00;;;-3.00;88.90;-3.80;99616.00;;;;4578442;30;92139;-60
2022/03/02 03:37:20;;;;;;;14.65;7.32;;;-3.10;88.80;-3.90;99615.00;;;;4578939;30;92120;-60
2022/03/02 03:39:46;;;;;;;11.20;6.50;;;-3.20;89.60;-3.90;99607.00;;;;4577264;30;92733;-60
2022/03/02 03:42:12;;;;;;;17.92;7.72;;;-3.10;90.00;-3.80;99609.00;;;;4576817;30;92583;-58
2022/03/02 03:44:38;;;;;;;13.52;7.78;;;-3.10;89.90;-3.80;99610.00;;;;4573985;30;94139;-59
2022/03/02 03:47:07;;;;;;;12.55;6.85;;;-3.10;90.00;-3.70;99605.00;;;;4577879;30;92198;-57
2022/03/02 03:49:34;;;;;;;12.50;6.85;;;-3.00;89.80;-3.70;99602.00;;;;4576401;30;92721;-59
2022/03/02 03:52:01;;;;;;;16.55;7.07;;;-2.90;89.80;-3.60;99603.00;;;;4567742;30;92644;-59
2022/03/02 03:54:27;;;;;;;14.52;7.38;;;-2.80;89.70;-3.60;99595.00;;;;4578422;30;92442;-59
2022/03/02 03:56:53;;;;;;;14.20;6.43;;;-2.70;89.40;-3.50;99594.00;;;;4574928;30;92182;-59
2022/03/02 03:59:19;;;;;;;17.13;7.10;;;-2.70;89.20;-3.50;99600.00;;;;4579184;30;93141;-59
2022/03/02 04:01:45;;;;;;;17.77;7.50;;;-2.70;89.20;-3.50;99595.00;;;;4576470;30;92496;-59
2022/03/02 04:04:11;;;;;;;13.60;7.47;;;-2.70;89.20;-3.50;99596.00;;;;4574457;30;92563;-60
2022/03/02 04:06:38;;;;;;;18.23;7.50;;;-2.70;89.50;-3.40;99598.00;;;;4576416;30;92195;-60
2022/03/02 04:09:04;;;;;;;17.73;7.60;;;-2.60;89.60;-3.40;99610.00;;;;4575431;30;93790;-59
2022/03/02 04:11:31;;;;;;;20.00;8.18;;;-2.50;89.60;-3.40;99605.00;;;;4592336;30;93155;-59
2022/03/02 04:13:57;;;;;;;17.17;7.82;;;-2.70;89.70;-3.50;99607.00;;;;4578476;30;92412;-59
2022/03/02 04:16:24;;;;;;;14.60;8.32;;;-2.70;89.90;-3.60;99603.00;;;;4576241;30;93068;-59
2022/03/02 04:18:50;;;;;;;26.23;9.05;;;-2.80;90.10;-3.70;99617.00;;;;4577431;30;92763;-60
2022/03/02 04:21:16;;;;;;;23.65;8.75;;;-2.90;90.10;-3.90;99602.00;;;;4582120;30;95026;-61
2022/03/02 04:23:43;;;;;;;17.80;8.15;;;-3.00;90.10;-3.90;99609.00;;;;4584709;30;92505;-60
2022/03/02 04:26:09;;;;;;;25.70;9.23;;;-3.10;90.20;-3.70;99604.00;;;;4566444;30;91520;-60
2022/03/02 04:28:35;;;;;;;23.95;9.55;;;-3.10;90.30;-3.50;99606.00;;;;4575820;30;93004;-60
2022/03/02 04:31:02;;;;;;;19.10;8.90;;;-3.10;90.50;-3.20;99604.00;;;;4576967;30;93940;-59
2022/03/02 04:33:28;;;;;;;17.65;8.35;;;-3.00;90.50;-2.90;99587.00;;;;4579179;30;93128;-59
2022/03/02 04:35:54;;;;;;;15.50;7.97;;;-2.70;90.00;-2.50;99589.00;;;;4575656;30;92178;-59
2022/03/02 04:38:20;;;;;;;16.05;7.43;;;-2.50;88.60;-2.20;99593.00;;;;4576177;30;92765;-59
2022/03/02 04:40:46;;;;;;;15.40;6.95;;;-2.30;87.60;-2.00;99595.00;;;;4577436;30;92534;-59
2022/03/02 04:43:13;;;;;;;11.63;6.40;;;-2.10;86.30;-1.70;99583.00;;;;4577329;30;92350;-61
2022/03/02 04:45:39;;;;;;;19.85;7.57;;;-2.00;86.30;-1.40;99593.00;;;;4575622;30;92378;-59
2022/03/02 04:48:05;;;;;;;17.08;6.50;;;-1.80;86.50;-1.30;99602.00;;;;4577625;30;92422;-59
2022/03/02 04:50:32;;;;;;;16.13;6.47;;;-1.70;85.60;-1.50;99592.00;;;;4576356;30;92554;-58
2022/03/02 04:52:58;;;;;;;18.77;8.05;;;-1.60;85.30;-1.50;99592.00;;;;4577382;30;92457;-59
2022/03/02 04:55:24;;;;;;;22.20;8.27;;;-1.60;85.80;-1.20;99584.00;;;;4577153;30;92136;-59
2022/03/02 04:58:01;;;;;;;18.15;7.97;;;-1.50;85.80;-0.90;99597.00;;;;4576368;30;96360;-57
2022/03/02 05:00:31;;;;;;;29.45;9.63;;;-1.40;85.60;-0.70;99593.00;;;;4575772;30;93326;-58
2022/03/02 05:03:00;;;;;;;25.45;9.32;;;-1.30;85.70;-0.80;99585.00;;;;4576941;30;92490;-58
2022/03/02 05:05:28;;;;;;;22.95;8.93;;;-1.30;85.90;-1.20;99588.00;;;;4591007;30;93300;-57
2022/03/02 05:07:55;;;;;;;26.08;8.63;;;-1.30;85.90;-1.50;99579.00;;;;4574559;30;93129;-59
2022/03/02 05:10:23;;;;;;;18.08;8.88;;;-1.30;85.70;-1.70;99580.00;;;;4576239;30;93225;-60
2022/03/02 05:12:51;;;;;;;21.70;8.32;;;-1.40;85.70;-2.00;99563.00;;;;4576276;30;92197;-61
2022/03/02 05:15:19;;;;;;;22.55;7.47;;;-1.50;85.90;-2.10;99577.00;;;;4576589;30;92916;-61
2022/03/02 05:17:47;;;;;;;20.83;8.68;;;-1.60;85.90;-2.20;99582.00;;;;4576079;30;94257;-60
2022/03/02 05:20:15;;;;;;;27.67;8.07;;;-1.60;86.10;-2.20;99587.00;;;;4576248;30;93674;-59
2022/03/02 05:22:42;;;;;;;29.65;8.77;;;-1.60;86.50;-2.30;99577.00;;;;4574689;30;93133;-59
2022/03/02 05:25:11;;;;;;;17.02;7.80;;;-1.70;86.50;-2.30;99571.00;;;;4576775;30;93720;-58
2022/03/02 05:27:38;;;;;;;16.60;7.65;;;-1.70;86.30;-2.30;99573.00;;;;4576296;30;93245;-59
2022/03/02 05:30:06;;;;;;;23.27;8.45;;;-1.60;86.60;-2.20;99572.00;;;;4589757;30;93628;-59
2022/03/02 05:32:32;;;;;;;25.75;9.00;;;-1.60;86.70;-2.20;99573.00;;;;4580969;30;92164;-60
2022/03/02 05:34:58;;;;;;;22.40;7.72;;;-1.60;86.70;-2.20;99570.00;;;;4576389;30;92354;-60
2022/03/02 05:37:24;;;;;;;28.88;10.43;;;-1.50;86.80;-2.10;99556.00;;;;4575972;30;93177;-59
2022/03/02 05:39:51;;;;;;;32.65;10.55;;;-1.50;86.80;-2.10;99557.00;;;;4571313;30;93975;-58
2022/03/02 05:42:17;;;;;;;25.77;10.02;;;-1.40;86.90;-2.10;99550.00;;;;4575575;30;92472;-59
2022/03/02 05:44:46;;;;;;;29.67;9.82;;;-1.40;86.90;-2.00;99552.00;;;;4575793;30;92104;-59
2022/03/02 05:47:13;;;;;;;20.45;7.85;;;-1.30;86.90;-1.90;99554.00;;;;4573394;30;93410;-59
2022/03/02 05:49:42;;;;;;;33.08;9.35;;;-1.30;86.30;-1.90;99553.00;;;;4576610;30;94728;-59
2022/03/02 05:52:08;;;;;;;32.10;9.00;;;-1.20;86.10;-1.80;99548.00;;;;4581249;30;93364;-59
2022/03/02 05:54:34;;;;;;;28.45;9.10;;;-1.20;86.00;-1.70;99548.00;;;;4589486;30;92866;-61
2022/03/02 05:57:00;;;;;;;26.48;9.27;;;-1.10;86.30;-1.70;99547.00;;;;4575194;30;93954;-62
2022/03/02 05:59:27;;;;;;;24.48;7.75;;;-1.10;86.00;-1.60;99546.00;;;;4579591;30;94003;-60
2022/03/02 06:01:53;;;;;;;21.77;6.97;;;-1.00;85.60;-1.50;99554.00;;;;4576604;30;92464;-61
2022/03/02 06:04:19;;;;;;;18.40;6.30;;;-0.90;85.40;-1.40;99543.00;;;;4590731;30;92877;-61
2022/03/02 06:06:45;;;;;;;22.90;6.70;;;-0.80;85.20;-1.30;99548.00;;;;4576536;30;92997;-59
2022/03/02 06:09:11;;;;;;;22.77;8.00;;;-0.70;85.00;-1.20;99550.00;;;;4576338;30;92356;-61
2022/03/02 06:11:39;;;;;;;20.98;7.60;;;-0.60;84.70;-1.10;99544.00;;;;4574996;30;95007;-59
2022/03/02 06:14:06;;;;;;;29.15;8.48;;;-0.40;84.10;-0.90;99531.00;;;;4588413;30;92799;-59
2022/03/02 06:16:33;;;;;;;17.92;7.13;;;-0.30;83.80;-0.80;99555.00;;;;4574789;30;93701;-59
2022/03/02 06:18:59;;;;;;;24.33;7.88;;;-0.20;83.20;-0.70;99537.00;;;;4574937;30;93536;-59
2022/03/02 06:21:30;;;;;;;19.63;6.60;;;-0.10;82.90;-0.60;99532.00;;;;4576034;30;93353;-60
2022/03/02 06:23:57;;;;;;;23.40;7.35;;;0.00;82.80;-0.50;99539.00;;;;4576022;30;93163;-60
2022/03/02 06:26:26;;;;;;;23.10;7.55;;;0.10;82.50;-0.40;99531.00;;;;4590493;30;93798;-59
2022/03/02 06:28:53;;;;;;;19.80;7.68;;;0.20;82.10;-0.30;99544.00;;;;4576210;30;92388;-59
2022/03/02 06:31:19;;;;;;;19.52;6.40;;;0.30;81.80;-0.20;99525.00;;;;4576377;30;93267;-60
2022/03/02 06:33:46;;;;;;;24.35;7.32;;;0.40;81.20;-0.10;99536.00;;;;4575851;30;92614;-60
2022/03/02 06:36:13;;;;;;;20.40;6.68;;;0.50;80.90;0.10;99535.00;;;;4581247;30;94197;-60
2022/03/02 06:38:39;;;;;;;19.52;6.68;;;0.60;80.40;0.20;99536.00;;;;4577040;30;93521;-60
2022/03/02 06:41:41;;;;;;;25.80;7.72;;;0.80;80.30;0.30;99536.00;;;;4575944;30;92626;-60
2022/03/02 06:44:32;;;;;;;28.17;6.70;;;0.90;79.90;0.40;99537.00;;;;4580978;30;92200;-60
2022/03/02 06:47:11;;;;;;;24.83;8.17;;;1.00;78.90;0.50;99525.00;;;;4575308;30;93709;-59
2022/03/02 06:50:06;;;;;;;25.00;7.90;;;1.10;78.60;0.60;99527.00;;;;4576740;30;92978;-60
2022/03/02 06:52:43;;;;;;;31.83;9.55;;;1.20;78.40;0.70;99521.00;;;;4576054;30;93074;-59
2022/03/02 06:55:13;;;;;;;40.13;9.43;;;1.30;78.50;0.80;99519.00;;;;4575673;30;91515;-60
2022/03/02 06:57:40;;;;;;;34.78;11.07;;;1.40;78.10;0.90;99525.00;;;;4575503;30;92875;-60
2022/03/02 07:00:16;;;;;;;32.83;9.23;;;1.50;77.70;1.00;99513.00;;;;4574788;30;92561;-60
2022/03/02 07:02:51;;;;;;;24.63;8.30;;;1.60;77.20;1.10;99520.00;;;;4575465;30;94753;-61
2022/03/02 07:05:19;;;;;;;24.92;8.13;;;1.60;76.30;1.20;99510.00;;;;4575291;30;92107;-62
2022/03/02 07:07:48;;;;;;;26.73;8.38;;;1.70;75.80;1.30;99514.00;;;;4575599;30;92708;-61
2022/03/02 07:10:15;;;;;;;26.63;8.00;;;1.80;75.60;1.30;99509.00;;;;4575397;30;92565;-60
2022/03/02 07:12:41;;;;;;;27.60;7.57;;;1.90;75.10;1.40;99504.00;;;;4575710;30;92840;-60
2022/03/02 07:15:08;;;;;;;25.90;8.45;;;2.00;74.70;1.50;99511.00;;;;4575509;30;93608;-60
2022/03/02 07:17:34;;;;;;;36.30;8.15;;;2.00;74.00;1.50;99517.00;;;;4574407;30;93913;-60
2022/03/02 07:20:07;;;;;;;19.63;7.50;;;2.10;73.80;1.60;99511.00;;;;4578365;30;92393;-61
2022/03/02 07:22:36;;;;;;;19.33;6.25;;;2.20;73.50;1.70;99504.00;;;;4576661;30;92112;-61
2022/03/02 07:25:15;;;;;;;22.05;6.93;;;2.20;72.40;1.70;99501.00;;;;4578605;30;92513;-61
2022/03/02 07:27:42;;;;;;;17.58;6.90;;;2.20;72.30;1.70;99503.00;;;;4579944;30;94965;-61
2022/03/02 07:30:09;;;;;;;18.88;6.82;;;2.20;72.60;1.80;99500.00;;;;4581864;30;93442;-61
2022/03/02 07:32:37;;;;;;;14.70;6.63;;;2.20;72.70;1.80;99496.00;;;;4566491;30;92701;-62
2022/03/02 07:35:06;;;;;;;18.33;6.72;;;2.30;73.00;1.90;99501.00;;;;4580608;30;94447;-62
2022/03/02 07:37:32;;;;;;;20.73;6.68;;;2.30;72.70;1.90;99503.00;;;;4583255;30;93592;-61
2022/03/02 07:39:59;;;;;;;24.23;8.27;;;2.30;72.90;2.00;99500.00;;;;4579932;30;93461;-61
2022/03/02 07:42:26;;;;;;;35.42;8.52;;;2.40;72.90;2.00;99502.00;;;;4582089;30;92105;-61
2022/03/02 07:44:54;;;;;;;33.85;8.68;;;2.50;73.80;2.10;99496.00;;;;4581928;30;91659;-61
2022/03/02 07:47:20;;;;;;;16.77;7.78;;;2.60;74.60;2.20;99499.00;;;;4580431;30;93408;-62
2022/03/02 07:49:47;;;;;;;26.02;9.43;;;2.60;74.10;2.20;99483.00;;;;4582226;30;93693;-62
2022/03/02 07:52:16;;;;;;;24.30;10.18;;;2.70;73.90;2.30;99488.00;;;;4581689;30;93442;-62
2022/03/02 07:54:44;;;;;;;27.77;10.23;;;2.80;73.90;2.40;99498.00;;;;4578213;30;92550;-62
2022/03/02 07:57:14;;;;;;;20.05;9.57;;;2.80;74.10;2.40;99488.00;;;;4577882;30;93079;-62
2022/03/02 07:59:44;;;;;;;23.48;8.93;;;2.80;73.30;2.40;99491.00;;;;4578739;30;92478;-61
2022/03/02 08:02:15;;;;;;;28.53;9.57;;;2.90;73.80;2.40;99485.00;;;;4578997;30;92540;-61
2022/03/02 08:04:42;;;;;;;14.80;6.47;;;2.90;74.40;2.50;99490.00;;;;4595609;30;93820;-62
2022/03/02 08:07:12;;;;;;;16.40;5.40;;;2.90;73.30;2.50;99491.00;;;;4579552;30;93034;-62
2022/03/02 08:09:39;;;;;;;16.92;5.32;;;2.90;72.00;2.60;99490.00;;;;4596086;30;93746;-61
2022/03/02 08:12:07;;;;;;;16.17;4.78;;;3.00;70.70;2.60;99481.00;;;;4579530;30;92619;-61
2022/03/02 08:14:33;;;;;;;18.08;4.82;;;3.00;71.70;2.60;99476.00;;;;4579807;30;92589;-62
2022/03/02 08:17:00;;;;;;;14.82;4.90;;;3.00;71.40;2.60;99477.00;;;;4581176;30;93877;-62
2022/03/02 08:19:26;;;;;;;12.77;4.63;;;3.00;71.50;2.60;99466.00;;;;4583655;30;93249;-62
2022/03/02 08:22:09;;;;;;;16.30;3.95;;;3.10;70.60;2.60;99466.00;;;;4579668;30;92261;-62
2022/03/02 08:24:42;;;;;;;14.73;4.00;;;3.00;70.20;2.60;99449.00;;;;4579923;30;92706;-62
2022/03/02 08:27:13;;;;;;;8.20;3.70;;;3.00;69.50;2.60;99461.00;;;;4578892;30;92771;-61
2022/03/02 08:29:39;;;;;;;9.52;3.00;;;3.10;69.60;2.60;99466.00;;;;4582385;30;93597;-62
2022/03/02 08:32:07;;;;;;;12.40;3.78;;;3.00;70.10;2.60;99454.00;;;;4580822;30;93472;-61
2022/03/02 08:34:34;;;;;;;6.78;3.97;;;3.00;70.30;2.60;99442.00;;;;4582963;30;91687;-61
2022/03/02 08:37:02;;;;;;;12.23;3.40;;;3.00;70.30;2.60;99436.00;;;;4580598;30;92852;-61
2022/03/02 08:39:28;;;;;;;10.20;3.67;;;3.10;71.20;2.70;99435.00;;;;4577396;30;92318;-62
2022/03/02 08:41:55;;;;;;;7.75;3.30;;;3.10;70.60;2.70;99431.00;;;;4592699;30;93561;-62
2022/03/02 08:44:22;;;;;;;14.05;4.38;;;3.20;70.20;2.80;99432.00;;;;4577608;30;92315;-61
2022/03/02 08:46:49;;;;;;;11.45;3.67;;;3.30;70.80;2.80;99430.00;;;;4577995;30;92938;-63
2022/03/02 08:49:21;;;;;;;8.02;3.78;;;3.30;70.10;2.90;99430.00;;;;4576982;30;93529;-61
2022/03/02 08:51:49;;;;;;;;;;;3.30;70.60;2.90;99425.00;;;;4582862;30;92370;-61
2022/03/02 08:54:18;;;;;;;10.38;3.78;;;3.30;69.80;3.00;99431.00;;;;4582320;30;92422;-62
2022/03/02 08:56:47;;;;;;;10.50;3.70;;;3.40;69.80;3.00;99425.00;;;;4584802;30;94028;-62
2022/03/02 08:59:16;;;;;;;14.60;4.85;;;3.50;70.00;3.00;99415.00;;;;4578810;30;92261;-61
2022/03/02 09:01:51;;;;;;;10.55;4.32;;;3.50;69.20;3.10;99407.00;;;;4578806;30;92584;-62
2022/03/02 09:04:18;;;;;;;13.23;4.47;;;3.50;69.20;3.10;99404.00;;;;4577912;30;92187;-62
2022/03/02 09:06:46;;;;;;;14.68;4.63;;;3.60;69.80;3.20;99401.00;;;;4575260;30;94718;-62
2022/03/02 09:09:13;;;;;;;16.10;4.00;;;3.60;69.90;3.20;99402.00;;;;4577806;30;93279;-62
2022/03/02 09:11:39;;;;;;;16.27;4.40;;;3.60;69.40;3.20;99395.00;;;;4581682;30;92170;-62
2022/03/02 09:14:06;;;;;;;12.43;4.50;;;3.60;69.30;3.20;99389.00;;;;4579230;30;93630;-62
2022/03/02 09:16:33;;;;;;;11.90;4.93;;;3.50;69.60;3.10;99387.00;;;;4576392;30;93828;-62
2022/03/02 09:18:59;;;;;;;9.50;4.80;;;3.50;70.00;3.20;99391.00;;;;4576292;30;92955;-61
2022/03/02 09:21:27;;;;;;;12.05;4.90;;;3.50;70.90;3.20;99392.00;;;;4577160;30;92291;-62
2022/03/02 09:23:55;;;;;;;12.32;4.63;;;3.50;70.00;3.20;99387.00;;;;4593655;30;93561;-62
2022/03/02 09:26:22;;;;;;;13.93;4.43;;;3.60;70.00;3.30;99389.00;;;;4576173;30;93816;-62
2022/03/02 09:28:53;;;;;;;10.32;4.35;;;3.70;70.10;3.30;99381.00;;;;4576385;30;92676;-61
2022/03/02 09:31:22;;;;;;;15.40;4.65;;;3.70;69.80;3.40;99380.00;;;;4576359;30;93833;-66
2022/03/02 09:33:55;;;;;;;12.68;4.35;;;3.80;71.60;3.50;99384.00;;;;4591850;30;92161;-63
2022/03/02 09:36:25;;;;;;;11.43;4.95;;;3.80;71.40;3.50;99377.00;;;;4574867;30;92746;-63
2022/03/02 09:38:53;;;;;;;11.43;3.90;;;3.80;70.80;3.50;99378.00;;;;4572815;30;92460;-63
2022/03/02 09:41:49;;;;;;;15.05;4.68;;;3.80;70.20;3.50;99365.00;;;;4572266;30;92205;-62
2022/03/02 09:44:21;;;;;;;13.15;4.20;;;3.80;71.00;3.60;99369.00;;;;4573991;30;92301;-63
2022/03/02 09:46:56;;;;;;;9.70;3.78;;;3.90;70.30;3.60;99362.00;;;;4576411;30;92979;-63
2022/03/02 09:49:28;;;;;;;18.83;4.65;;;4.00;70.10;3.70;99362.00;;;;4576325;30;93400;-64
2022/03/02 09:52:12;;;;;;;13.27;4.97;;;4.10;70.60;3.80;99367.00;;;;4576951;30;92196;-61
2022/03/02 09:54:39;;;;;;;12.05;4.03;;;4.10;70.50;3.70;99354.00;;;;4576925;30;92609;-62
2022/03/02 09:57:08;;;;;;;14.70;4.60;;;4.00;69.90;3.70;99355.00;;;;4573783;30;94720;-63
2022/03/02 09:59:39;;;;;;;8.90;3.67;;;4.10;69.10;3.70;99341.00;;;;4576077;30;94564;-62
2022/03/02 10:02:08;;;;;;;10.70;4.30;;;4.10;67.70;3.60;99351.00;;;;4574722;30;92639;-62
2022/03/02 10:04:36;;;;;;;10.18;4.07;;;3.90;67.70;3.70;99344.00;;;;4575629;30;93307;-64
2022/03/02 10:07:26;;;;;;;11.27;4.00;;;3.90;68.60;3.70;99337.00;;;;4572196;30;92913;-62
2022/03/02 10:10:07;;;;;;;10.07;3.88;;;4.00;69.70;3.70;99340.00;;;;4561534;30;95183;-62
2022/03/02 10:12:35;;;;;;;9.32;3.95;;;4.10;69.30;3.80;99338.00;;;;4575803;30;92604;-62
2022/03/02 10:15:04;;;;;;;9.35;3.95;;;4.10;69.10;3.90;99331.00;;;;4576685;30;92968;-62
2022/03/02 10:17:37;;;;;;;12.05;4.20;;;4.20;68.70;3.90;99329.00;;;;4576422;30;92788;-62
2022/03/02 10:20:15;;;;;;;8.18;3.85;;;4.20;68.60;3.90;99339.00;;;;4576339;30;92977;-61
2022/03/02 10:22:44;;;;;;;13.95;4.40;;;4.20;67.50;3.90;99325.00;;;;4575798;30;94573;-62
2022/03/02 10:25:14;;;;;;;15.23;4.57;;;4.20;67.60;3.90;99330.00;;;;4593468;30;92560;-64
2022/03/02 10:28:07;;;;;;;11.52;3.92;;;4.20;68.10;3.80;99322.00;;;;4577133;30;92761;-61
2022/03/02 10:30:39;;;;;;;13.52;4.25;;;4.10;67.60;3.90;99336.00;;;;4575767;30;92495;-62
2022/03/02 10:33:22;;;;;;;10.32;4.38;;;4.10;68.00;3.90;99332.00;;;;4575887;30;92359;-62
2022/03/02 10:36:07;;;;;;;11.18;4.82;;;4.20;67.40;4.00;99314.00;;;;4584783;30;92908;-62
2022/03/02 10:38:59;;;;;;;8.90;4.35;;;4.30;67.30;4.10;99315.00;;;;4581261;30;95758;-62
2022/03/02 10:41:29;;;;;;;15.13;4.75;;;4.40;67.10;4.10;99311.00;;;;4575385;30;93902;-62
2022/03/02 10:44:05;;;;;;;7.82;3.80;;;4.40;68.20;4.10;99319.00;;;;4576402;30;92136;-62
2022/03/02 10:46:34;;;;;;;10.75;3.42;;;4.40;66.50;4.00;99308.00;;;;4571981;30;92242;-62
2022/03/02 10:49:14;;;;;;;10.80;4.15;;;4.30;65.50;4.10;99308.00;;;;4574678;30;95861;-62
2022/03/02 10:51:43;;;;;;;8.98;3.50;;;4.30;65.10;4.10;99290.00;;;;4575501;30;92236;-62
2022/03/02 10:54:11;;;;;;;9.27;4.15;;;4.40;64.10;4.20;99299.00;;;;4574642;30;93436;-62
2022/03/02 10:56:40;;;;;;;9.75;4.15;;;4.50;64.40;4.20;99294.00;;;;4574480;30;92362;-61
2022/03/02 10:59:17;;;;;;;13.25;3.95;;;4.50;65.30;4.20;99287.00;;;;4581905;30;92572;-62
2022/03/02 11:01:57;;;;;;;10.07;4.22;;;4.40;64.20;4.20;99284.00;;;;4578773;30;92481;-63
2022/03/02 11:04:24;;;;;;;12.07;4.03;;;4.40;64.10;4.20;99279.00;;;;4577652;30;92274;-63
2022/03/02 11:07:03;;;;;;;9.65;4.50;;;4.40;63.50;4.20;99275.00;;;;4579142;30;92251;-62
2022/03/02 11:09:34;;;;;;;16.20;4.80;;;4.50;63.70;4.30;99273.00;;;;4577905;30;92721;-61